createdAt,value
2018-10-21T00:00:45.380Z,26.63
2018-10-21T00:03:18.011Z,28.40
2018-10-21T00:05:49.177Z,27.97
2018-10-21T00:08:20.406Z,28.70
2018-10-21T00:10:51.553Z,28.83
2018-10-21T00:13:23.120Z,28.20
2018-10-21T00:15:54.759Z,32.20
2018-10-21T00:18:26.361Z,29.77
2018-10-21T00:20:57.583Z,28.40
2018-10-21T00:23:28.911Z,27.83
2018-10-21T00:26:00.101Z,32.97
2018-10-21T00:28:31.606Z,32.03
2018-10-21T00:31:02.798Z,39.60
2018-10-21T00:33:34.312Z,33.33
2018-10-21T00:36:05.871Z,29.20
2018-10-21T00:38:37.091Z,33.43
2018-10-21T00:41:09.410Z,35.87
2018-10-21T00:43:40.718Z,34.10
2018-10-21T00:46:12.323Z,31.87
2018-10-21T00:48:43.762Z,33.93
2018-10-21T00:51:15.243Z,32.70
2018-10-21T00:53:46.739Z,31.30
2018-10-21T00:56:18.306Z,29.90
2018-10-21T00:58:49.773Z,30.90
2018-10-21T01:01:21.260Z,31.13
2018-10-21T01:03:52.807Z,36.00
2018-10-21T01:06:23.968Z,29.30
2018-10-21T01:08:55.121Z,31.33
2018-10-21T01:11:26.785Z,27.90
2018-10-21T01:13:58.042Z,34.97
2018-10-21T01:16:29.585Z,33.20
2018-10-21T01:19:01.031Z,33.07
2018-10-21T01:21:32.128Z,36.73
2018-10-21T01:24:03.289Z,36.33
2018-10-21T01:26:34.850Z,29.23
2018-10-21T01:29:06.001Z,31.70
2018-10-21T01:31:37.176Z,34.13
2018-10-21T01:34:08.505Z,29.43
2018-10-21T01:36:40.205Z,37.47
2018-10-21T01:39:12.792Z,37.73
2018-10-21T01:41:43.888Z,34.33
2018-10-21T01:44:15.358Z,31.20
2018-10-21T01:46:46.523Z,29.37
2018-10-21T01:49:17.683Z,33.60
2018-10-21T01:51:48.835Z,30.73
2018-10-21T01:54:23.401Z,31.10
2018-10-21T01:56:54.596Z,35.80
2018-10-21T01:59:26.190Z,32.13
2018-10-21T02:01:58.126Z,32.27
2018-10-21T02:04:29.419Z,32.23
2018-10-21T02:07:01.025Z,28.57
2018-10-21T02:09:32.245Z,29.70
2018-10-21T02:12:03.348Z,34.20
2018-10-21T02:14:34.800Z,34.30
2018-10-21T02:17:06.317Z,32.07
2018-10-21T02:19:37.808Z,30.53
2018-10-21T02:22:09.315Z,33.73
2018-10-21T02:24:40.906Z,29.77
2018-10-21T02:27:12.127Z,30.13
2018-10-21T02:29:43.476Z,36.47
2018-10-21T02:32:14.605Z,36.33
2018-10-21T02:34:46.203Z,34.57
2018-10-21T02:37:17.712Z,32.03
2018-10-21T02:39:49.282Z,28.13
2018-10-21T02:42:20.911Z,29.07
2018-10-21T02:44:52.403Z,31.13
2018-10-21T02:47:24.435Z,30.90
2018-10-21T02:49:55.587Z,32.87
2018-10-21T02:52:27.082Z,32.73
2018-10-21T02:54:58.575Z,30.20
2018-10-21T02:57:29.731Z,31.90
2018-10-21T03:00:01.515Z,31.03
2018-10-21T03:02:32.651Z,34.50
2018-10-21T03:05:03.802Z,34.47
2018-10-21T03:07:35.760Z,35.43
2018-10-21T03:10:07.223Z,27.23
2018-10-21T03:12:39.035Z,28.60
2018-10-21T03:15:10.209Z,30.50
2018-10-21T03:17:41.329Z,33.37
2018-10-21T03:20:12.487Z,32.73
2018-10-21T03:22:43.672Z,32.33
2018-10-21T03:25:14.827Z,30.27
2018-10-21T03:27:45.963Z,31.03
2018-10-21T03:30:17.108Z,26.97
2018-10-21T03:32:48.644Z,32.30
2018-10-21T03:35:20.047Z,31.00
2018-10-21T03:37:51.589Z,34.80
2018-10-21T03:40:23.364Z,28.77
2018-10-21T03:42:55.361Z,29.53
2018-10-21T03:45:27.236Z,29.47
2018-10-21T03:47:58.436Z,29.47
2018-10-21T03:50:29.891Z,28.13
2018-10-21T03:53:01.077Z,30.40
2018-10-21T03:55:34.025Z,29.17
2018-10-21T03:58:05.966Z,30.53
2018-10-21T04:00:37.575Z,30.13
2018-10-21T04:03:09.240Z,32.37
2018-10-21T04:05:40.812Z,31.53
2018-10-21T04:08:11.974Z,30.63
2018-10-21T04:10:43.127Z,32.73
2018-10-21T04:13:14.300Z,31.67
2018-10-21T04:15:45.520Z,31.50
2018-10-21T04:18:16.956Z,28.73
2018-10-21T04:20:48.380Z,29.60
2018-10-21T04:23:19.538Z,27.17
2018-10-21T04:25:50.963Z,28.90
2018-10-21T04:28:22.166Z,28.00
2018-10-21T04:30:53.508Z,30.97
2018-10-21T04:33:43.327Z,31.23
2018-10-21T04:36:16.182Z,29.73
2018-10-21T04:39:57.066Z,30.33
2018-10-21T04:42:28.770Z,29.17
2018-10-21T04:45:00.033Z,25.63
2018-10-21T04:47:31.563Z,31.33
2018-10-21T04:50:02.745Z,31.43
2018-10-21T04:52:34.548Z,28.40
2018-10-21T04:55:16.137Z,26.63
2018-10-21T04:57:48.834Z,33.40
2018-10-21T05:00:21.292Z,28.43
2018-10-21T05:02:52.535Z,27.83
2018-10-21T05:05:23.647Z,27.70
2018-10-21T05:07:55.408Z,30.93
2018-10-21T05:10:37.663Z,28.60
2018-10-21T05:13:09.698Z,28.70
2018-10-21T05:15:41.558Z,32.10
2018-10-21T05:18:13.255Z,31.10
2018-10-21T05:20:44.863Z,30.10
2018-10-21T05:23:16.520Z,30.97
2018-10-21T05:25:48.108Z,29.53
2018-10-21T05:28:20.079Z,26.37
2018-10-21T05:30:51.225Z,29.33
2018-10-21T05:33:22.401Z,30.33
2018-10-21T05:35:53.987Z,31.10
2018-10-21T05:38:25.797Z,32.23
2018-10-21T05:40:57.000Z,34.73
2018-10-21T05:43:28.533Z,32.53
2018-10-21T05:45:59.830Z,32.43
2018-10-21T05:48:30.955Z,30.97
2018-10-21T05:51:02.611Z,25.73
2018-10-21T05:53:33.741Z,25.50
2018-10-21T05:56:05.223Z,31.37
2018-10-21T05:58:36.361Z,30.87
2018-10-21T06:01:07.543Z,27.77
2018-10-21T06:03:39.017Z,26.13
2018-10-21T06:06:11.121Z,32.40
2018-10-21T06:08:42.287Z,32.43
2018-10-21T06:11:13.993Z,30.03
2018-10-21T06:13:45.448Z,26.60
2018-10-21T06:16:18.075Z,29.10
2018-10-21T06:18:49.731Z,30.80
2018-10-21T06:21:20.950Z,28.17
2018-10-21T06:23:52.541Z,30.23
2018-10-21T06:26:23.641Z,35.17
2018-10-21T06:28:54.813Z,33.67
2018-10-21T06:31:26.100Z,31.43
2018-10-21T06:33:57.304Z,31.50
2018-10-21T06:36:28.683Z,28.47
2018-10-21T06:39:00.277Z,28.60
2018-10-21T06:41:31.828Z,30.30
2018-10-21T06:44:03.233Z,25.90
2018-10-21T06:46:35.143Z,28.37
2018-10-21T06:49:07.004Z,30.67
2018-10-21T06:51:38.615Z,30.53
2018-10-21T06:54:09.802Z,27.07
2018-10-21T06:56:41.099Z,26.27
2018-10-21T06:59:12.597Z,26.63
2018-10-21T07:01:44.186Z,26.87
2018-10-21T07:04:15.996Z,28.23
2018-10-21T07:06:47.228Z,25.90
2018-10-21T07:09:18.809Z,26.63
2018-10-21T07:11:50.314Z,26.23
2018-10-21T07:14:22.277Z,23.63
2018-10-21T07:16:53.478Z,21.57
2018-10-21T07:19:25.298Z,20.53
2018-10-21T07:21:56.721Z,23.03
2018-10-21T07:24:27.883Z,28.43
2018-10-21T07:26:59.266Z,19.73
2018-10-21T07:29:32.491Z,21.13
2018-10-21T07:32:04.058Z,21.23
2018-10-21T07:34:35.366Z,21.20
2018-10-21T07:37:07.098Z,22.17
2018-10-21T07:39:38.916Z,18.03
2018-10-21T07:42:10.260Z,21.33
2018-10-21T07:44:41.907Z,15.03
2018-10-21T07:47:13.609Z,17.13
2018-10-21T07:49:45.490Z,16.47
2018-10-21T07:52:17.669Z,18.37
2018-10-21T07:54:48.971Z,17.70
2018-10-21T07:57:20.335Z,14.13
2018-10-21T07:59:52.007Z,13.77
2018-10-21T08:02:23.406Z,15.83
2018-10-21T08:04:55.062Z,13.03
2018-10-21T08:08:25.618Z,11.10
2018-10-21T08:10:57.257Z,12.03
2018-10-21T08:13:28.955Z,9.77
2018-10-21T08:16:01.154Z,12.67
2018-10-21T08:18:32.807Z,9.50
2018-10-21T08:21:04.183Z,8.57
2018-10-21T08:23:36.283Z,9.53
2018-10-21T08:26:07.516Z,12.70
2018-10-21T08:28:42.162Z,10.30
2018-10-21T08:31:13.427Z,6.97
2018-10-21T08:33:45.333Z,7.17
2018-10-21T08:36:16.790Z,7.20
2018-10-21T08:38:48.329Z,9.47
2018-10-21T08:41:19.518Z,5.27
2018-10-21T08:43:50.686Z,8.97
2018-10-21T08:46:22.314Z,7.13
2018-10-21T08:48:53.317Z,9.07
2018-10-21T08:51:24.501Z,9.27
2018-10-21T08:53:55.956Z,8.70
2018-10-21T08:56:27.583Z,8.93
2018-10-21T08:59:00.255Z,5.43
2018-10-21T09:01:31.473Z,10.40
2018-10-21T09:04:02.834Z,13.00
2018-10-21T09:06:33.911Z,11.83
2018-10-21T09:09:06.037Z,8.90
2018-10-21T09:11:37.844Z,12.77
2018-10-21T09:14:09.005Z,10.47
2018-10-21T09:16:40.219Z,10.27
2018-10-21T09:19:11.448Z,10.07
2018-10-21T09:21:43.386Z,10.10
2018-10-21T09:24:15.285Z,13.63
2018-10-21T09:26:47.620Z,8.87
2018-10-21T09:29:18.879Z,10.33
2018-10-21T09:31:50.874Z,13.23
2018-10-21T09:34:22.758Z,11.57
2018-10-21T09:36:54.340Z,10.93
2018-10-21T09:39:25.590Z,11.20
2018-10-21T09:41:56.777Z,8.70
2018-10-21T09:44:27.950Z,13.50
2018-10-21T09:46:59.140Z,6.07
2018-10-21T09:49:30.334Z,6.40
2018-10-21T09:52:01.521Z,7.47
2018-10-21T09:54:32.767Z,6.90
2018-10-21T09:57:03.987Z,5.57
2018-10-21T09:59:35.431Z,5.33
2018-10-21T10:02:24.276Z,6.77
2018-10-21T10:04:56.076Z,8.13
2018-10-21T10:07:27.984Z,7.30
2018-10-21T10:09:59.230Z,8.13
2018-10-21T10:12:30.794Z,10.07
2018-10-21T10:15:01.981Z,7.40
2018-10-21T10:17:33.602Z,4.43
2018-10-21T10:20:04.717Z,5.90
2018-10-21T10:22:35.902Z,7.53
2018-10-21T10:25:08.479Z,9.23
2018-10-21T10:27:43.113Z,8.97
2018-10-21T10:30:15.040Z,7.30
2018-10-21T10:32:46.519Z,7.30
2018-10-21T10:35:17.852Z,7.40
2018-10-21T10:37:49.048Z,8.30
2018-10-21T10:40:23.428Z,5.83
2018-10-21T10:42:54.944Z,5.73
2018-10-21T10:45:26.426Z,6.50
2018-10-21T10:48:03.207Z,5.30
2018-10-21T10:50:35.880Z,7.93
2018-10-21T10:53:07.392Z,4.87
2018-10-21T10:55:52.212Z,7.00
2018-10-21T10:58:23.928Z,6.27
2018-10-21T11:00:55.763Z,5.83
2018-10-21T11:03:27.374Z,7.30
2018-10-21T11:05:58.590Z,5.37
2018-10-21T11:08:30.165Z,5.43
2018-10-21T11:11:01.609Z,4.53
2018-10-21T11:13:33.417Z,5.17
2018-10-21T11:16:04.679Z,5.00
2018-10-21T11:18:36.129Z,5.60
2018-10-21T11:21:08.237Z,6.40
2018-10-21T11:23:39.706Z,3.62
2018-10-21T11:26:10.888Z,5.57
2018-10-21T11:28:42.721Z,6.67
2018-10-21T11:31:15.642Z,5.30
2018-10-21T11:33:47.250Z,6.05
2018-10-21T11:36:18.445Z,6.33
2018-10-21T11:38:49.689Z,6.47
2018-10-21T11:41:20.884Z,5.93
2018-10-21T11:43:52.414Z,3.52
2018-10-21T11:46:23.651Z,5.12
2018-10-21T11:48:54.775Z,7.10
2018-10-21T11:51:26.031Z,4.33
2018-10-21T11:53:57.430Z,2.93
2018-10-21T11:56:28.617Z,4.83
2018-10-21T11:59:00.198Z,4.63
2018-10-21T12:01:31.374Z,5.27
2018-10-21T12:04:02.892Z,5.00
2018-10-21T12:06:34.037Z,5.50
2018-10-21T12:09:05.854Z,5.37
2018-10-21T12:11:37.560Z,7.60
2018-10-21T12:14:09.521Z,4.50
2018-10-21T12:16:41.180Z,4.53
2018-10-21T12:19:12.774Z,5.17
2018-10-21T12:21:44.151Z,7.37
2018-10-21T12:24:15.350Z,3.80
2018-10-21T12:26:46.605Z,4.53
2018-10-21T12:29:17.847Z,10.40
2018-10-21T12:31:49.261Z,5.83
2018-10-21T12:34:20.821Z,6.67
2018-10-21T12:36:52.010Z,5.93
2018-10-21T12:39:23.419Z,7.67
2018-10-21T12:41:55.196Z,5.77
2018-10-21T12:44:27.028Z,6.33
2018-10-21T12:46:58.728Z,10.87
2018-10-21T12:49:32.836Z,8.13
2018-10-21T12:52:04.741Z,6.80
2018-10-21T12:54:36.386Z,7.97
2018-10-21T12:57:07.533Z,6.30
2018-10-21T12:59:38.711Z,6.70
2018-10-21T13:02:09.903Z,6.03
2018-10-21T13:04:41.824Z,7.47
2018-10-21T13:07:13.290Z,7.03
2018-10-21T13:09:45.416Z,10.03
2018-10-21T13:12:16.865Z,7.33
2018-10-21T13:14:48.555Z,8.33
2018-10-21T13:17:20.166Z,7.30
2018-10-21T13:19:51.671Z,6.77
2018-10-21T13:22:23.207Z,7.77
2018-10-21T13:24:54.389Z,6.27
2018-10-21T13:27:25.817Z,6.77
2018-10-21T13:29:57.496Z,7.07
2018-10-21T13:32:29.035Z,7.73
2018-10-21T13:35:00.212Z,10.33
2018-10-21T13:37:31.769Z,6.57
2018-10-21T13:40:03.037Z,7.87
2018-10-21T13:42:34.795Z,7.43
2018-10-21T13:45:06.230Z,7.83
2018-10-21T13:47:37.801Z,8.13
2018-10-21T13:50:09.812Z,9.37
2018-10-21T13:52:41.082Z,9.00
2018-10-21T13:55:12.566Z,7.00
2018-10-21T13:57:43.681Z,9.87
2018-10-21T14:00:14.874Z,8.77
2018-10-21T14:02:46.639Z,8.30
2018-10-21T14:05:17.802Z,9.93
2018-10-21T14:07:49.023Z,10.17
2018-10-21T14:10:20.194Z,9.10
2018-10-21T14:12:51.359Z,8.77
2018-10-21T14:15:22.735Z,6.90
2018-10-21T14:17:54.462Z,8.13
2018-10-21T14:20:26.120Z,8.23
2018-10-21T14:22:57.792Z,8.93
2018-10-21T14:25:29.737Z,9.13
2018-10-21T14:28:01.168Z,7.30
2018-10-21T14:30:32.415Z,7.83
2018-10-21T14:33:03.629Z,8.07
2018-10-21T14:35:35.387Z,10.77
2018-10-21T14:38:06.574Z,8.00
2018-10-21T14:40:38.172Z,8.97
2018-10-21T14:43:09.800Z,6.90
2018-10-21T14:45:41.095Z,9.63
2018-10-21T14:48:12.267Z,9.50
2018-10-21T14:50:44.332Z,6.07
2018-10-21T14:53:15.536Z,6.97
2018-10-21T14:55:46.719Z,7.90
2018-10-21T14:58:18.894Z,8.03
2018-10-21T15:00:50.142Z,10.53
2018-10-21T15:03:21.626Z,9.50
2018-10-21T15:05:52.776Z,8.27
2018-10-21T15:08:24.288Z,10.53
2018-10-21T15:10:55.760Z,8.30
2018-10-21T15:13:27.413Z,8.10
2018-10-21T15:15:59.094Z,6.87
2018-10-21T15:18:30.935Z,12.23
2018-10-21T15:21:03.298Z,9.13
2018-10-21T15:23:35.028Z,9.57
2018-10-21T15:26:06.674Z,8.40
2018-10-21T15:28:38.971Z,7.70
2018-10-21T15:31:10.482Z,7.37
2018-10-21T15:33:42.011Z,9.63
2018-10-21T15:36:14.029Z,7.77
2018-10-21T15:38:45.587Z,6.90
2018-10-21T15:41:17.470Z,8.17
2018-10-21T15:43:48.988Z,8.43
2018-10-21T15:46:20.688Z,6.23
2018-10-21T15:48:52.498Z,8.33
2018-10-21T15:51:24.002Z,10.27
2018-10-21T15:53:55.613Z,6.77
2018-10-21T15:56:26.791Z,9.13
2018-10-21T15:58:57.984Z,16.10
2018-10-21T16:01:29.144Z,5.97
2018-10-21T16:04:00.606Z,6.10
2018-10-21T16:06:31.821Z,8.60
2018-10-21T16:09:03.016Z,5.77
2018-10-21T16:11:34.182Z,6.83
2018-10-21T16:14:05.510Z,6.47
2018-10-21T16:16:37.303Z,5.10
2018-10-21T16:19:09.110Z,5.13
2018-10-21T16:21:40.815Z,10.43
2018-10-21T16:24:12.401Z,5.73
2018-10-21T16:26:43.865Z,9.63
2018-10-21T16:29:15.994Z,10.80
2018-10-21T16:31:47.420Z,11.37
2018-10-21T16:34:18.912Z,10.30
2018-10-21T16:36:49.951Z,6.60
2018-10-21T16:39:21.928Z,5.30
2018-10-21T16:41:53.137Z,7.20
2018-10-21T16:44:24.429Z,5.67
2018-10-21T16:46:55.730Z,6.37
2018-10-21T16:49:26.933Z,5.43
2018-10-21T16:51:58.552Z,5.67
2018-10-21T16:54:29.888Z,7.53
2018-10-21T16:57:01.471Z,8.53
2018-10-21T16:59:32.666Z,10.83
2018-10-21T17:02:03.849Z,8.53
2018-10-21T17:04:35.986Z,9.07
2018-10-21T17:07:08.686Z,9.40
2018-10-21T17:09:40.674Z,9.97
2018-10-21T17:12:11.773Z,9.10
2018-10-21T17:14:43.045Z,7.57
2018-10-21T17:17:15.021Z,5.67
2018-10-21T17:19:46.948Z,8.13
2018-10-21T17:22:18.145Z,6.60
2018-10-21T17:24:49.779Z,5.67
2018-10-21T17:27:21.214Z,6.20
2018-10-21T17:29:52.629Z,7.80
2018-10-21T17:32:24.057Z,7.50
2018-10-21T17:34:55.335Z,6.67
2018-10-21T17:37:26.915Z,6.80
2018-10-21T17:39:58.181Z,9.17
2018-10-21T17:42:29.923Z,8.93
2018-10-21T17:45:01.210Z,6.47
2018-10-21T17:47:32.820Z,8.47
2018-10-21T17:50:04.444Z,7.47
2018-10-21T17:52:36.135Z,5.63
2018-10-21T17:55:07.380Z,9.07
2018-10-21T17:57:39.037Z,6.80
2018-10-21T18:00:12.941Z,8.33
2018-10-21T18:02:44.324Z,9.07
2018-10-21T18:05:16.481Z,7.50
2018-10-21T18:07:47.646Z,10.40
2018-10-21T18:10:18.916Z,6.60
2018-10-21T18:12:50.234Z,10.10
2018-10-21T18:15:21.651Z,9.47
2018-10-21T18:17:53.515Z,6.57
2018-10-21T18:20:25.316Z,6.63
2018-10-21T18:22:56.812Z,6.80
2018-10-21T18:25:28.011Z,11.70
2018-10-21T18:27:59.526Z,8.90
2018-10-21T18:30:31.034Z,12.77
2018-10-21T18:33:02.261Z,8.80
2018-10-21T18:35:33.449Z,9.73
2018-10-21T18:38:05.008Z,10.63
2018-10-21T18:40:36.242Z,12.50
2018-10-21T18:43:07.453Z,10.03
2018-10-21T18:45:38.901Z,13.93
2018-10-21T18:48:10.134Z,12.27
2018-10-21T18:50:41.658Z,9.73
2018-10-21T18:53:13.154Z,9.37
2018-10-21T18:55:45.188Z,9.57
2018-10-21T18:58:16.677Z,11.03
2018-10-21T19:00:47.830Z,11.27
2018-10-21T19:03:19.334Z,11.73
2018-10-21T19:05:50.500Z,12.67
2018-10-21T19:08:21.657Z,10.93
2018-10-21T19:10:53.528Z,10.33
2018-10-21T19:13:24.731Z,12.30
2018-10-21T19:15:56.441Z,10.83
2018-10-21T19:18:28.272Z,10.10
2018-10-21T19:20:59.472Z,13.50
2018-10-21T19:23:30.885Z,10.73
2018-10-21T19:26:02.058Z,11.00
2018-10-21T19:28:33.439Z,12.13
2018-10-21T19:31:04.697Z,13.03
2018-10-21T19:33:36.233Z,12.13
2018-10-21T19:36:07.728Z,11.40
2018-10-21T19:38:38.875Z,11.10
2018-10-21T19:41:10.017Z,11.87
2018-10-21T19:43:41.181Z,11.00
2018-10-21T19:46:12.415Z,12.30
2018-10-21T19:48:43.513Z,11.80
2018-10-21T19:51:15.135Z,12.70
2018-10-21T19:53:46.261Z,10.43
2018-10-21T19:56:17.702Z,10.40
2018-10-21T19:58:48.901Z,10.43
2018-10-21T20:01:20.514Z,11.03
2018-10-21T20:03:52.656Z,9.17
2018-10-21T20:06:23.883Z,14.33
2018-10-21T20:08:55.645Z,14.60
2018-10-21T20:11:26.877Z,11.23
2018-10-21T20:13:58.053Z,15.30
2018-10-21T20:16:29.655Z,9.83
2018-10-21T20:19:00.835Z,10.77
2018-10-21T20:21:31.968Z,12.23
2018-10-21T20:24:03.431Z,11.07
2018-10-21T20:26:34.630Z,13.37
2018-10-21T20:29:05.777Z,11.70
2018-10-21T20:31:37.033Z,14.40
2018-10-21T20:34:08.694Z,13.23
2018-10-21T20:36:39.856Z,11.60
2018-10-21T20:39:12.056Z,11.73
2018-10-21T20:41:43.301Z,12.57
2018-10-21T20:44:14.496Z,12.43
2018-10-21T20:46:45.714Z,11.17
2018-10-21T20:49:17.753Z,11.03
2018-10-21T20:51:49.447Z,12.70
2018-10-21T20:54:21.307Z,12.47
2018-10-21T20:56:52.505Z,11.33
2018-10-21T20:59:24.727Z,11.70
2018-10-21T21:01:56.220Z,12.27
2018-10-21T21:04:27.763Z,12.73
2018-10-21T21:06:59.022Z,10.30
2018-10-21T21:09:30.244Z,15.43
2018-10-21T21:12:01.447Z,14.70
2018-10-21T21:14:33.021Z,12.83
2018-10-21T21:17:05.127Z,12.27
2018-10-21T21:19:36.309Z,10.77
2018-10-21T21:22:07.489Z,16.53
2018-10-21T21:24:38.624Z,10.90
2018-10-21T21:27:10.005Z,10.37
2018-10-21T21:29:42.635Z,11.80
2018-10-21T21:32:13.820Z,12.87
2018-10-21T21:34:46.289Z,12.03
2018-10-21T21:37:19.636Z,13.87
2018-10-21T21:39:51.079Z,12.60
2018-10-21T21:42:22.482Z,11.57
2018-10-21T21:44:53.627Z,12.47
2018-10-21T21:47:24.782Z,14.40
2018-10-21T21:49:55.916Z,13.90
2018-10-21T21:52:27.500Z,12.73
2018-10-21T21:54:58.655Z,15.47
2018-10-21T21:57:30.401Z,17.23
2018-10-21T22:00:01.610Z,16.83
2018-10-21T22:02:32.987Z,15.23
2018-10-21T22:05:04.181Z,13.83
2018-10-21T22:07:35.904Z,12.73
2018-10-21T22:10:07.380Z,13.60
2018-10-21T22:12:38.946Z,13.33
2018-10-21T22:15:10.105Z,18.27
2018-10-21T22:17:42.213Z,12.10
2018-10-21T22:20:14.408Z,16.00
2018-10-21T22:22:45.620Z,14.07
2018-10-21T22:25:16.879Z,15.13
2018-10-21T22:27:48.152Z,18.03
2018-10-21T22:30:19.330Z,13.47
2018-10-21T22:32:50.483Z,13.10
2018-10-21T22:35:21.670Z,11.20
2018-10-21T22:37:52.863Z,14.80
2018-10-21T22:40:24.349Z,13.43
2018-10-21T22:42:55.937Z,14.47
2018-10-21T22:45:27.076Z,18.07
2018-10-21T22:47:58.646Z,11.33
2018-10-21T22:50:29.768Z,14.10
2018-10-21T22:53:00.930Z,12.90
2018-10-21T22:55:32.337Z,12.40
2018-10-21T22:58:03.518Z,14.17
2018-10-21T23:00:35.084Z,13.90
2018-10-21T23:03:06.354Z,16.57
2018-10-21T23:05:38.073Z,15.47
2018-10-21T23:08:09.341Z,12.53
2018-10-21T23:10:40.497Z,12.13
2018-10-21T23:13:11.878Z,13.37
2018-10-21T23:15:43.013Z,12.37
2018-10-21T23:18:14.477Z,13.47
2018-10-21T23:20:45.827Z,14.67
2018-10-21T23:23:17.669Z,18.60
2018-10-21T23:25:48.825Z,17.37
2018-10-21T23:28:20.465Z,14.17
2018-10-21T23:30:51.951Z,16.93
2018-10-21T23:33:23.755Z,15.60
2018-10-21T23:35:54.902Z,18.20
2018-10-21T23:38:26.469Z,17.17
2018-10-21T23:40:57.618Z,17.40
2018-10-21T23:43:28.989Z,20.83
2018-10-21T23:46:00.620Z,16.30
2018-10-21T23:48:31.901Z,18.10
2018-10-21T23:51:03.043Z,18.77
2018-10-21T23:53:35.171Z,15.03
2018-10-21T23:56:06.352Z,20.27
2018-10-21T23:58:38.217Z,17.10
